^^
Station Historical Data
 
Daily Summary for April 23, 2018 Units:  Metric    English   Both
« Previous Day
Next Day »
Daily Weekly Monthly Yearly Custom
  Current: High: Low: Average:
Temperature: -11.3 °C -17.8 °C -13.2 °C -12.3 °C
Dew Point: -14.1 °C -17.8 °C -14.4 °C -13.8 °C
Humidity: 71% Humidity% 69% 83%
Wind Speed: 50.7km/h 0km/h 0km/h 25.3km/h
Wind Gust: 50.7km/h 0km/h - -
WindWNW - - West
Pressure: 34452.6 hPa 0 hPa 34327.3 hPa -
Precipitation: 0 mm      
Historical Graphs
 
 
Tabular Data for April 23, 2018
Time Temperature Dew Point Pressure Wind Wind Speed Wind Gust Humidity Rainfall Rate (Hourly) solar Conditions
-17.8 °C -17.8 °C 0 hPa Calm     Humidity% 0 mm SolarRadiationWatts/m^2 W/m2 Conditions
00:04 -12.4 °C -13.5 °C 34327.3 hPa SW 44.1 km/h 44.1 km/h 88% 0 mm 0.0 W/m2 SCT
00:09 -12.4 °C -13.5 °C 34327.3 hPa SSW 32.8 km/h 32.8 km/h 88% 0 mm 0.0 W/m2 SCT
00:14 -12.5 °C -13.6 °C 34327.3 hPa West 38.8 km/h 38.8 km/h 88% 0 mm 0.0 W/m2 SCT
00:19 -12.5 °C -13.6 °C 34327.3 hPa WSW 36.2 km/h 36.2 km/h 88% 0 mm 0.0 W/m2 SCT
00:23 -12.5 °C -13.6 °C 34327.3 hPa West 38.8 km/h 38.8 km/h 88% 0 mm 0.0 W/m2 SCT
00:28 -12.5 °C -13.6 °C 34327.3 hPa West 41.7 km/h 41.7 km/h 88% 0 mm 0.0 W/m2 SCT
00:33 -12.5 °C -13.6 °C 34327.3 hPa West 38.8 km/h 38.8 km/h 88% 0 mm 0.0 W/m2 SCT
00:38 -12.5 °C -13.6 °C 34327.3 hPa West 35.7 km/h 35.7 km/h 88% 0 mm 0.0 W/m2 SCT
00:43 -12.5 °C -13.6 °C 34337.4 hPa West 29.8 km/h 29.8 km/h 88% 0 mm 0.0 W/m2 SCT
00:48 -12.5 °C -13.6 °C 34337.4 hPa WNW 38.8 km/h 38.8 km/h 88% 0 mm 0.0 W/m2 SCT
00:53 -12.5 °C -13.6 °C 34337.4 hPa West 29.8 km/h 29.8 km/h 88% 0 mm 0.0 W/m2 SCT
00:58 -12.5 °C -13.4 °C 34337.4 hPa West 29.8 km/h 29.8 km/h 89% 0 mm 0.0 W/m2 SCT
01:03 -12.5 °C -13.4 °C 34337.4 hPa WSW 29.8 km/h 29.8 km/h 89% 0 mm 0.0 W/m2 OVC
01:08 -12.5 °C -13.4 °C 34337.4 hPa WSW 26.9 km/h 26.9 km/h 89% 0 mm 0.0 W/m2 OVC
01:13 -12.5 °C -13.4 °C 34337.4 hPa WNW 29.8 km/h 29.8 km/h 89% 0 mm 0.0 W/m2 OVC
01:18 -12.5 °C -13.4 °C 34337.4 hPa WNW 23.8 km/h 23.8 km/h 89% 0 mm 0.0 W/m2 OVC
01:23 -12.5 °C -13.4 °C 34337.4 hPa West 20.9 km/h 20.9 km/h 90% 0 mm 0.0 W/m2 OVC
01:28 -12.6 °C -13.4 °C 34337.4 hPa West 33.6 km/h 33.6 km/h 90% 0 mm 0.0 W/m2 OVC
01:33 -12.6 °C -13.4 °C 34347.6 hPa WSW 33.6 km/h 33.6 km/h 90% 0 mm 0.0 W/m2 OVC
01:38 -12.6 °C -13.4 °C 34347.6 hPa West 29.8 km/h 29.8 km/h 90% 0 mm 0.0 W/m2 OVC
01:43 -12.6 °C -13.4 °C 34347.6 hPa West 29.8 km/h 29.8 km/h 90% 0 mm 0.0 W/m2 OVC
01:48 -12.6 °C -13.4 °C 34347.6 hPa WSW 17.9 km/h 17.9 km/h 90% 0 mm 0.0 W/m2 OVC
01:53 -12.6 °C -13.4 °C 34347.6 hPa West 23.8 km/h 23.8 km/h 90% 0 mm 0.0 W/m2 OVC
01:58 -12.6 °C -13.4 °C 34347.6 hPa West 29.8 km/h 29.8 km/h 90% 0 mm 0.0 W/m2 OVC
02:03 -12.6 °C -13.4 °C 34347.6 hPa West 26.9 km/h 26.9 km/h 90% 0 mm 0.0 W/m2 OVC
02:08 -12.6 °C -13.4 °C 34347.6 hPa West 29.8 km/h 29.8 km/h 90% 0 mm 0.0 W/m2 OVC
02:13 -12.5 °C -13.4 °C 34347.6 hPa West 23.8 km/h 23.8 km/h 90% 0 mm 0.0 W/m2 OVC
02:18 -12.5 °C -13.4 °C 34337.4 hPa WSW 26.9 km/h 26.9 km/h 90% 0 mm 0.0 W/m2 OVC
02:23 -12.5 °C -13.4 °C 34337.4 hPa West 17.9 km/h 17.9 km/h 89% 0 mm 0.0 W/m2 OVC
02:28 -12.5 °C -13.4 °C 34337.4 hPa WSW 20.9 km/h 20.9 km/h 89% 0 mm 0.0 W/m2 OVC
02:33 -12.5 °C -13.4 °C 34337.4 hPa WSW 35.7 km/h 35.7 km/h 89% 0 mm 0.0 W/m2 OVC
02:38 -12.5 °C -13.4 °C 34337.4 hPa WSW 29.8 km/h 29.8 km/h 89% 0 mm 0.0 W/m2 OVC
02:43 -12.5 °C -13.4 °C 34347.6 hPa West 23.8 km/h 23.8 km/h 89% 0 mm 0.0 W/m2 OVC
02:48 -12.6 °C -13.5 °C 34347.6 hPa West 23.3 km/h 23.3 km/h 89% 0 mm 0.0 W/m2 OVC
02:53 -12.6 °C -13.4 °C 34347.6 hPa West 29.8 km/h 29.8 km/h 90% 0 mm 0.0 W/m2 OVC
02:58 -12.6 °C -13.4 °C 34347.6 hPa WSW 20.9 km/h 20.9 km/h 90% 0 mm 0.0 W/m2 OVC
03:03 -12.6 °C -13.4 °C 34347.6 hPa WSW 20.9 km/h 20.9 km/h 90% 0 mm 0.0 W/m2 OVC
03:08 -12.6 °C -13.4 °C 34347.6 hPa SW 26.9 km/h 26.9 km/h 90% 0 mm 0.0 W/m2 OVC
03:13 -12.6 °C -13.4 °C 34347.6 hPa WSW 26.9 km/h 26.9 km/h 90% 0 mm 0.0 W/m2 OVC
03:18 -12.6 °C -13.4 °C 34347.6 hPa SW 32.8 km/h 32.8 km/h 90% 0 mm 0.0 W/m2 OVC
03:23 -12.6 °C -13.4 °C 34347.6 hPa WSW 29.8 km/h 29.8 km/h 90% 0 mm 0.0 W/m2 OVC
03:28 -12.6 °C -13.6 °C 34347.6 hPa West 23.8 km/h 23.8 km/h 89% 0 mm 0.0 W/m2 OVC
03:29 -12.6 °C -13.6 °C 34347.6 hPa WNW 11.9 km/h 11.9 km/h 89% 0 mm 0.0 W/m2 OVC
03:34 -12.6 °C -13.5 °C 34347.6 hPa WNW 11.9 km/h 11.9 km/h 90% 0 mm 0.0 W/m2 OVC
03:39 -12.6 °C -13.5 °C 34347.6 hPa West 15 km/h 15 km/h 90% 0 mm 0.0 W/m2 OVC
03:44 -12.7 °C -13.5 °C 34347.6 hPa West 23.8 km/h 23.8 km/h 90% 0 mm 0.0 W/m2 OVC
03:49 -12.7 °C -13.6 °C 34361.1 hPa West 20.8 km/h 20.8 km/h 89% 0 mm 0.0 W/m2 OVC
03:54 -12.7 °C -13.7 °C 34361.1 hPa West 17.9 km/h 17.9 km/h 89% 0 mm 0.0 W/m2 OVC
03:59 -12.7 °C -13.7 °C 34347.6 hPa West 9 km/h 9 km/h 89% 0 mm 0.0 W/m2 OVC
04:04 -12.8 °C -13.7 °C 34347.6 hPa West 17.9 km/h 17.9 km/h 89% 0 mm 0.0 W/m2 OVC
04:09 -12.8 °C -13.8 °C 34347.6 hPa Calm     89% 0 mm 0.0 W/m2 OVC
04:14 -12.8 °C -13.8 °C 34347.6 hPa Calm     89% 0 mm 0.0 W/m2 OVC
04:19 -12.9 °C -13.8 °C 34347.6 hPa Calm     89% 0 mm 0.0 W/m2 OVC
04:24 -12.9 °C -13.9 °C 34347.6 hPa West 9 km/h 9 km/h 89% 0 mm 0.0 W/m2 OVC
04:29 -13 °C -13.9 °C 34347.6 hPa West 9 km/h 9 km/h 89% 0 mm 0.0 W/m2 OVC
04:34 -13 °C -14 °C 34347.6 hPa WSW 6 km/h   89% 0 mm 0.0 W/m2 OVC
04:39 -13.1 °C -13.9 °C 34347.6 hPa West 9 km/h 9 km/h 90% 0 mm 0.0 W/m2 OVC
04:44 -13.1 °C -14 °C 34347.6 hPa WSW 9 km/h 9 km/h 90% 0 mm 0.0 W/m2 OVC
04:49 -13.1 °C -14 °C 34347.6 hPa SW 11.9 km/h 11.9 km/h 90% 0 mm 0.0 W/m2 OVC
04:54 -13.1 °C -14 °C 34347.6 hPa WSW 6 km/h 6 km/h 90% 0 mm 0.0 W/m2 OVC
04:59 -13.2 °C -14 °C 34361.1 hPa WNW 9 km/h 9 km/h 90% 0 mm 0.0 W/m2 OVC
05:04 -13.2 °C -14 °C 34361.1 hPa WSW 9 km/h 9 km/h 90% 0 mm 0.0 W/m2 OVC
05:09 -13.2 °C -14.1 °C 34361.1 hPa WSW 3.1 km/h   90% 0 mm 0.0 W/m2 OVC
05:14 -13.2 °C -14.1 °C 34361.1 hPa WNW 11.9 km/h 11.9 km/h 90% 0 mm 0.0 W/m2 OVC
05:19 -13.2 °C -14 °C 34361.1 hPa Calm     90% 0 mm 0.0 W/m2 OVC
05:24 -13.2 °C -14 °C 34361.1 hPa Calm     90% 0 mm 0.0 W/m2 OVC
05:29 -13.2 °C -14.1 °C 34361.1 hPa Calm     90% 0 mm 0.0 W/m2 OVC
05:34 -13.2 °C -14.1 °C 34361.1 hPa Calm     90% 0 mm 0.0 W/m2 OVC
05:39 -13.2 °C -14.1 °C 34361.1 hPa Calm     90% 0 mm 0.0 W/m2 OVC
05:44 -13.2 °C -14 °C 34361.1 hPa Calm     91% 0 mm 0.0 W/m2 OVC
05:49 -13.2 °C -14 °C 34371.3 hPa Calm     91% 0 mm 0.0 W/m2 OVC
05:54 -13.2 °C -14 °C 34371.3 hPa Calm     91% 0 mm 0.0 W/m2 OVC
05:59 -13.2 °C -13.9 °C 34371.3 hPa Calm     91% 0 mm 0.0 W/m2 OVC
06:04 -13.2 °C -13.9 °C 34371.3 hPa Calm     91% 0 mm 0.0 W/m2 OVC
06:09 -13.2 °C -13.9 °C 34371.3 hPa Calm     91% 0 mm 5.5 W/m2 OVC
06:14 -13.2 °C -13.9 °C 34371.3 hPa Calm     91% 0 mm 7.7 W/m2 OVC
06:19 -13.2 °C -13.9 °C 34371.3 hPa Calm     91% 0 mm 15.4 W/m2 OVC
06:24 -13.2 °C -13.9 °C 34371.3 hPa Calm     91% 0 mm 17.6 W/m2 OVC
06:29 -13.2 °C -13.9 °C 34384.8 hPa Calm     91% 0 mm 23.1 W/m2 OVC
06:34 -13.2 °C -13.9 °C 34384.8 hPa Calm     91% 0 mm 30.8 W/m2 OVC
06:39 -13.1 °C -13.8 °C 34384.8 hPa West 9 km/h 9 km/h 91% 0 mm 30.8 W/m2 OVC
06:44 -13.1 °C -13.8 °C 34384.8 hPa Calm     91% 0 mm 30.8 W/m2 OVC
06:49 -13 °C -13.9 °C 34384.8 hPa West 2.6 km/h   90% 0 mm 28.6 W/m2 OVC
06:54 -13 °C -13.8 °C 34384.8 hPa Calm     90% 0 mm 35.2 W/m2 OVC
06:59 -13.1 °C -13.9 °C 34384.8 hPa West 6 km/h 6 km/h 90% 0 mm 44.0 W/m2 OVC
07:04 -13 °C -13.8 °C 34384.8 hPa West 15 km/h 15 km/h 90% 0 mm 36.3 W/m2 OVC
07:09 -12.9 °C -13.9 °C 34395 hPa West 15 km/h 15 km/h 89% 0 mm 35.2 W/m2 OVC
07:14 -12.9 °C -13.9 °C 34395 hPa West 15 km/h 15 km/h 88% 0 mm 46.2 W/m2 OVC
07:19 -12.9 °C -13.9 °C 34395 hPa West 9 km/h 9 km/h 88% 0 mm 68.2 W/m2 OVC
07:24 -12.9 °C -14.1 °C 34395 hPa WSW 18.2 km/h 18.2 km/h 87% 0 mm 91.3 W/m2 OVC
07:29 -12.9 °C -14 °C 34395 hPa West 17.9 km/h 17.9 km/h 87% 0 mm 84.7 W/m2 OVC
07:34 -12.8 °C -14.1 °C 34395 hPa WSW 15.6 km/h 15.6 km/h 86% 0 mm 91.3 W/m2 OVC
07:39 -12.7 °C -14.1 °C 34405.1 hPa West 15.6 km/h 15.6 km/h 85% 0 mm 96.8 W/m2 OVC
07:44 -12.7 °C -14.1 °C 34405.1 hPa WSW 9 km/h 9 km/h 84% 0 mm 89.1 W/m2 OVC
07:49 -12.7 °C -14.1 °C 34405.1 hPa WSW 15 km/h 15 km/h 84% 0 mm 84.7 W/m2 OVC
07:54 -12.7 °C -14.1 °C 34405.1 hPa WSW 11.9 km/h 11.9 km/h 84% 0 mm 99.0 W/m2 OVC
07:59 -12.6 °C -13.9 °C 34405.1 hPa WSW 9 km/h 9 km/h 85% 0 mm 91.3 W/m2 OVC
08:04 -12.6 °C -13.9 °C 34405.1 hPa West 10.3 km/h 10.3 km/h 85% 0 mm 73.7 W/m2 OVC
08:09 -12.6 °C -14 °C 34405.1 hPa West 17.9 km/h 17.9 km/h 84% 0 mm 66.0 W/m2 OVC
08:14 -12.6 °C -13.9 °C 34405.1 hPa WSW 9 km/h 9 km/h 84% 0 mm 84.7 W/m2 OVC
08:19 -12.5 °C -13.9 °C 34405.1 hPa SW 20.9 km/h 20.9 km/h 84% 0 mm 96.8 W/m2 OVC
08:24 -12.4 °C -13.9 °C 34418.7 hPa WSW 17.9 km/h 17.9 km/h 84% 0 mm 86.9 W/m2 OVC
08:29 -12.4 °C -13.8 °C 34418.7 hPa WNW 12.9 km/h 12.9 km/h 84% 0 mm 107.8 W/m2 OVC
08:35 -12.4 °C -13.7 °C 34418.7 hPa WSW 12.9 km/h 20.8 km/h 85% 0 mm 148.5 W/m2 OVC
08:40 -12.4 °C -13.7 °C 34418.7 hPa WSW 7.7 km/h 20.8 km/h 85% 0 mm 239.8 W/m2 OVC
08:45 -12.3 °C -13.7 °C 34418.7 hPa WNW 20.8 km/h 20.8 km/h 85% 0 mm 301.4 W/m2 OVC
08:50 -12.2 °C -13.7 °C 34418.7 hPa West 20.8 km/h 31.1 km/h 84% 0 mm 309.1 W/m2 OVC
08:54 -12.2 °C -13.7 °C 34418.7 hPa West 23.3 km/h 51.8 km/h 83% 0 mm 257.4 W/m2 OVC
09:00 -12.1 °C -13.6 °C 34418.7 hPa SSW 20.9 km/h 20.9 km/h 83% 0 mm 173.8 W/m2 OVC
09:04 -12.1 °C -13.6 °C 34428.8 hPa WSW 18.2 km/h 36.2 km/h 83% 0 mm 220.0 W/m2 OVC
09:10 -12.1 °C -13.6 °C 34428.8 hPa WSW 18.2 km/h 31.1 km/h 83% 0 mm 212.3 W/m2 OVC
09:15 -12.1 °C -13.6 °C 34428.8 hPa West 29.8 km/h 29.8 km/h 84% 0 mm 158.4 W/m2 OVC
09:20 -12.1 °C -13.7 °C 34428.8 hPa West 44.1 km/h 44.1 km/h 83% 0 mm 218.9 W/m2 OVC
09:25 -12.1 °C -13.6 °C 34428.8 hPa WSW 15.6 km/h 44.1 km/h 83% 0 mm 255.2 W/m2 OVC
09:30 -12 °C -13.7 °C 34428.8 hPa WSW 23.3 km/h 41.4 km/h 82% 0 mm 352.0 W/m2 OVC
09:35 -11.9 °C -13.6 °C 34428.8 hPa West 26.9 km/h 26.9 km/h 81% 0 mm 385.0 W/m2 OVC
09:40 -11.8 °C -13.8 °C 34428.8 hPa WSW 41.7 km/h 41.7 km/h 79% 0 mm 479.6 W/m2 OVC
09:45 -11.8 °C -13.7 °C 34428.8 hPa West 29.8 km/h 29.8 km/h 79% 0 mm 477.4 W/m2 OVC
09:51 -11.6 °C -13.8 °C 34428.8 hPa West 38.8 km/h 38.8 km/h 77% 0 mm 451.0 W/m2 OVC
09:52 -11.6 °C -14 °C 34428.8 hPa West 50.7 km/h 50.7 km/h 75% 0 mm 451.0 W/m2 OVC
09:54 -11.6 °C -13.8 °C 34428.8 hPa WSW 29.8 km/h 29.8 km/h 76% 0 mm 355.3 W/m2 OVC
09:57 -11.6 °C -13.9 °C 34428.8 hPa SSW 38.8 km/h 38.8 km/h 75% 0 mm 276.1 W/m2 OVC
09:58 -11.6 °C -14 °C 34428.8 hPa WSW 41.7 km/h 41.7 km/h 75% 0 mm 160.6 W/m2 OVC
10:01 -11.7 °C -13.9 °C 34428.8 hPa SW 41.7 km/h 41.7 km/h 76% 0 mm 189.2 W/m2 OVC
10:02 -11.7 °C -13.9 °C 34428.8 hPa West 41.7 km/h 41.7 km/h 76% 0 mm 189.2 W/m2 OVC
10:03 -11.6 °C -13.9 °C 34428.8 hPa WSW 31.1 km/h 31.1 km/h 76% 0 mm 189.2 W/m2 OVC
10:04 -11.6 °C -13.9 °C 34428.8 hPa WSW 47.6 km/h 47.6 km/h 76% 0 mm 704.0 W/m2 OVC
10:05 -11.6 °C -13.9 °C 34428.8 hPa WNW 47.6 km/h 47.6 km/h 76% 0 mm 704.0 W/m2 OVC
10:06 -11.6 °C -14 °C 34428.8 hPa SW 47.6 km/h 47.6 km/h 75% 0 mm 704.0 W/m2 OVC
10:07 -11.6 °C -14 °C 34428.8 hPa WSW 44.7 km/h 44.7 km/h 75% 0 mm 704.0 W/m2 OVC
10:08 -11.6 °C -13.8 °C 34428.8 hPa WNW 29.8 km/h 29.8 km/h 76% 0 mm 295.9 W/m2 OVC
10:09 -11.6 °C -13.9 °C 34428.8 hPa WSW 35.7 km/h 35.7 km/h 75% 0 mm 295.9 W/m2 OVC
10:10 -11.6 °C -13.9 °C 34428.8 hPa WNW 29.8 km/h 29.8 km/h 75% 0 mm 306.9 W/m2 OVC
10:11 -11.6 °C -13.9 °C 34428.8 hPa West 29.8 km/h 29.8 km/h 75% 0 mm 306.9 W/m2 OVC
10:12 -11.5 °C -13.9 °C 34428.8 hPa WSW 41.7 km/h 41.7 km/h 75% 0 mm 357.5 W/m2 OVC
10:16 -11.5 °C -13.9 °C 34428.8 hPa WSW 29.8 km/h 29.8 km/h 75% 0 mm 301.4 W/m2 OVC
10:18 -11.4 °C -13.8 °C 34428.8 hPa SW 31.1 km/h 31.1 km/h 75% 0 mm 849.2 W/m2 OVC
10:19 -11.3 °C -13.7 °C 34428.8 hPa WNW 29.8 km/h 29.8 km/h 75% 0 mm 849.2 W/m2 OVC
10:21 -11.3 °C -13.8 °C 34428.8 hPa SSW 35.7 km/h 35.7 km/h 74% 0 mm 359.7 W/m2 OVC
10:26 -11.3 °C -14 °C 34428.8 hPa WNW 44.7 km/h 44.7 km/h 72% 0 mm 454.3 W/m2 OVC
10:27 -11.3 °C -14 °C 34428.8 hPa WNW 44.7 km/h 44.7 km/h 72% 0 mm 454.3 W/m2 OVC
10:30 -11.3 °C -14.3 °C 34428.8 hPa West 41.7 km/h 41.7 km/h 70% 0 mm 464.2 W/m2 OVC
10:35 -11.2 °C -14.3 °C 34442.4 hPa West 47.6 km/h 47.6 km/h 69% 0 mm 539.0 W/m2 OVC
10:40 -11.3 °C -14.4 °C 34428.8 hPa SW 47.6 km/h 47.6 km/h 69% 0 mm 602.8 W/m2 OVC
10:43 -11.3 °C -14.1 °C 34442.4 hPa WSW 38.8 km/h 38.8 km/h 71% 0 mm 290.4 W/m2 OVC
10:48 -11.4 °C -14 °C 34428.8 hPa WSW 29.8 km/h 29.8 km/h 73% 0 mm 390.5 W/m2 OVC
10:54 -11.4 °C -14.1 °C 34428.8 hPa West 41.7 km/h 41.7 km/h 72% 0 mm 262.9 W/m2 OVC
11:00 -11.5 °C -14.1 °C 34428.8 hPa West 41.7 km/h 41.7 km/h 73% 0 mm 156.2 W/m2 OVC
11:05 -11.6 °C -14.3 °C 34428.8 hPa West 44.7 km/h 44.7 km/h 72% 0 mm 451.0 W/m2 SCT
11:10 -11.5 °C -13.9 °C 34428.8 hPa West 44.7 km/h 44.7 km/h 74% 0 mm 388.3 W/m2 SCT
11:15 -11.4 °C -14 °C 34428.8 hPa West 44.7 km/h 44.7 km/h 73% 0 mm 533.5 W/m2 SCT
11:19 -11.3 °C -14 °C 34428.8 hPa WSW 50.7 km/h 50.7 km/h 72% 0 mm 543.4 W/m2 SCT
11:24 -11.2 °C -14.1 °C 34442.4 hPa West 36.2 km/h 36.2 km/h 71% 0 mm 385.0 W/m2 SCT
11:26 -11.3 °C -14.1 °C 34442.4 hPa WSW 47.6 km/h 47.6 km/h 71% 0 mm 247.5 W/m2 SCT
11:30 -11.4 °C -14.2 °C 34442.4 hPa West 31.1 km/h 57 km/h 71% 0 mm 298.1 W/m2 SCT
11:34 -11.3 °C -13.9 °C 34442.4 hPa WSW 38.8 km/h 38.8 km/h 73% 0 mm 336.6 W/m2 SCT
11:35 -11.3 °C -13.9 °C 34442.4 hPa WSW 41.4 km/h 41.4 km/h 73% 0 mm 336.6 W/m2 SCT
11:37 -11.3 °C -13.9 °C 34442.4 hPa WSW 47.6 km/h 47.6 km/h 73% 0 mm 306.9 W/m2 SCT
11:38 -11.3 °C -13.9 °C 34442.4 hPa WSW 36.2 km/h 36.2 km/h 73% 0 mm 301.4 W/m2 SCT
11:39 -11.3 °C -13.9 °C 34442.4 hPa West 41.7 km/h 41.7 km/h 73% 0 mm 377.3 W/m2 SCT
11:40 -11.3 °C -13.9 °C 34442.4 hPa SW 41.7 km/h 41.7 km/h 73% 0 mm 377.3 W/m2 SCT
11:43 -11.3 °C -14.2 °C 34442.4 hPa WSW 47.6 km/h 47.6 km/h 71% 0 mm 456.5 W/m2 SCT
11:46 -11.3 °C -14 °C 34442.4 hPa WSW 32.8 km/h 32.8 km/h 72% 0 mm 354.2 W/m2 SCT
11:47 -11.3 °C -14 °C 34442.4 hPa WSW 44.1 km/h 44.1 km/h 72% 0 mm 332.2 W/m2 SCT
11:49 -11.2 °C -14.1 °C 34442.4 hPa SW 38.8 km/h 38.8 km/h 71% 0 mm 326.7 W/m2 SCT
11:50 -11.2 °C -14.1 °C 34442.4 hPa WSW 25.9 km/h 44.1 km/h 71% 0 mm 372.9 W/m2 SCT
11:51 -11.2 °C -14.1 °C 34442.4 hPa West 29.8 km/h 29.8 km/h 71% 0 mm 372.9 W/m2 SCT
11:54 -11.3 °C -14.1 °C 34442.4 hPa SW 50.7 km/h 50.7 km/h 71% 0 mm 298.1 W/m2 SCT
11:55 -11.3 °C -14.1 °C 34442.4 hPa West 50.7 km/h 50.7 km/h 71% 0 mm 282.7 W/m2 SCT
11:56 -11.3 °C -14.1 °C 34442.4 hPa West 44.7 km/h 44.7 km/h 71% 0 mm 267.3 W/m2 SCT
11:57 -11.3 °C -14 °C 34442.4 hPa WSW 41.7 km/h 41.7 km/h 72% 0 mm 267.3 W/m2 SCT
12:00 -11.3 °C -14 °C 34452.6 hPa WNW 46.7 km/h 46.7 km/h 72% 0 mm 268.4 W/m2 SCT
12:02 -11.3 °C -14.2 °C 34452.6 hPa WNW 68.6 km/h 68.6 km/h 71% 0 mm 283.8 W/m2 BKN
12:04 -11.4 °C -14.2 °C 34452.6 hPa WSW 50.7 km/h 50.7 km/h 71% 0 mm 408.1 W/m2 BKN
12:09 -11.3 °C -14.1 °C 34452.6 hPa WSW 53.6 km/h 53.6 km/h 71% 0 mm 694.1 W/m2 SCT
12:11 -11.3 °C -14.1 °C 34452.6 hPa WNW 50.7 km/h 50.7 km/h 71% 0 mm 379.5 W/m2 FEW
Sunningdale,Caerphilly,Wales
Compliments of Weather Underground - 2.25 mb